Flight Track Log - Related Links

Times and Time Zones

All times are in EDT time to prevent confusion due to time zone crossing. See the SWA268 flight status page for this flight to view local times or setup timezone preferences in your user account.

Time Position Orientation Groundspeed Altitude Reporting Facility
EDT Latitude Longitude Course Direction KTS km/h feet Rate Location/Type
Tue 12:12:38 33.6514 -117.8831 40° Northeast 155 286 1.400  Level Los Angeles Center
Tue 12:13:00 33.6333 -117.8833 181° South 155 286 2.100 1.238 Climbing Southern California TRACON
Tue 12:13:41 33.6092 -117.8947 201° Southwest 159 295 2.700 1.471 Climbing Los Angeles Center
Tue 12:14:42 33.5569 -117.9139 197° South 198 367 4.600 2.256 Climbing Los Angeles Center
Tue 12:15:46 33.5192 -117.9886 239° Southwest 223 414 7.400 2.952 Climbing Los Angeles Center
Tue 12:16:46 33.5194 -118.0725 270° West 253 468 10.700 2.976 Climbing Los Angeles Center
Tue 12:17:49 33.5697 -118.1381 313° West 280 518 13.500 3.504 Climbing Los Angeles Center
Tue 12:18:00 33.7914 -118.0253 40° Northeast  Level FlightAware Approximate
Tue 12:18:51 33.6425 -118.1086 19° North 278 515 18.000  Level Los Angeles Center
Tue 12:19:55 33.7156 -118.0822 17° North 276 512 20.700 2.976 Climbing Los Angeles Center
Tue 12:20:56 33.8075 -118.0319 24° Northeast 310 575 24.200 3.000 Climbing Los Angeles Center
Tue 12:21:57 33.8786 -117.9681 37° Northeast 323 599 26.800 1.355 Climbing Los Angeles Center
Tue 12:23:00 33.9375 -117.9147 37° Northeast 330 612 27.000 96 Climbing Los Angeles Center
Tue 12:24:02 34.0261 -117.8336 37° Northeast 335 621 27.000  Level Los Angeles Center
Tue 12:25:03 34.1000 -117.7614 39° Northeast 341 631 27.000  Level Los Angeles Center
Tue 12:26:06 34.1628 -117.6744 49° Northeast 345 639 27.000  Level Los Angeles Center
Tue 12:27:07 34.2389 -117.5697 49° Northeast 345 639 27.000  Level Los Angeles Center
Tue 12:28:11 34.3017 -117.4856 48° Northeast 340 629 27.000  Level Los Angeles Center
Tue 12:29:12 34.3664 -117.3989 48° Northeast 345 639 27.000  Level Los Angeles Center
Tue 12:30:16 34.4325 -117.3075 49° Northeast 346 641 27.000  Level Los Angeles Center
Tue 12:31:17 34.4964 -117.2194 49° Northeast 348 644 27.000  Level Los Angeles Center
Tue 12:32:17 34.5603 -117.1322 48° Northeast 348 644 27.000  Level Los Angeles Center
Tue 12:33:20 34.6244 -117.0436 49° Northeast 350 649 27.000  Level Los Angeles Center
Tue 12:34:21 34.7017 -116.9372 49° Northeast 353 653 27.000  Level Los Angeles Center
Tue 12:35:25 34.7661 -116.8475 49° Northeast 354 655 27.000  Level Los Angeles Center
Tue 12:36:27 34.8319 -116.7569 48° Northeast 358 663 27.000  Level Los Angeles Center
Tue 12:37:27 34.8983 -116.6650 49° Northeast 361 668 27.000  Level Los Angeles Center
Tue 12:38:32 34.9656 -116.5722 49° Northeast 367 679 27.000 -624 Level Los Angeles Center
Tue 12:39:32 35.0500 -116.4664 46° Northeast 364 674 25.700 -1.438 Descending Los Angeles Center
Tue 12:40:33 35.1053 -116.3972 46° Northeast 360 666 24.100 -810 Descending Los Angeles Center
Tue 12:41:38 35.1897 -116.2892 46° Northeast 365 676 24.000 -48 Descending Los Angeles Center
Tue 12:42:39 35.2636 -116.2003 44° Northeast 373 690 24.000 -339 Level Los Angeles Center
Tue 12:43:42 35.3331 -116.1097 47° Northeast 368 681 23.300 -1.694 Descending Los Angeles Center
Tue 12:44:43 35.4181 -116.0019 46° Northeast 367 679 20.500 -2.705 Descending Los Angeles Center
Tue 12:45:44 35.4900 -115.9111 46° Northeast 370 686 17.800 -2.509 Descending Los Angeles Center
Tue 12:46:33 35.5494 -115.8394 44° Northeast 375 695 15.900 -1.969 Descending Los Angeles Center
Tue 12:46:48 35.5567 -115.8267 55° Northeast 372 689 15.700 -3.000 Descending Los Angeles Center
Tue 12:47:03 35.5883 -115.7903 43° Northeast 365 676 14.400 -2.361 Descending Los Angeles Center
Tue 12:47:49 35.6356 -115.7250 48° Northeast 349 647 13.300 -1.377 Descending Los Angeles Center
Tue 12:48:04 35.6414 -115.7044 71° East 327 605 13.000 -656 Descending Los Angeles Center
Tue 12:48:53 35.6633 -115.6325 69° East 297 550 12.600 -1.036 Descending Los Angeles Center
Tue 12:49:54 35.6914 -115.5456 68° East 279 517 11.100 -1.388 Descending Los Angeles Center
Tue 12:51:07 35.7253 -115.4422 68° East 268 496 9.500 -1.258 Descending Los Angeles Center
Tue 12:51:58 35.7533 -115.3853 59° Northeast 265 491 8.500 -956 Descending Los Angeles Center
Tue 12:53:00 35.7983 -115.3269 46° Northeast 251 465 7.700 -787 Descending Los Angeles Center
Tue 12:54:00 35.8536 -115.2958 25° Northeast 230 426 6.900 -877 Descending Los Angeles Center
Tue 12:55:10 35.9244 -115.2553 25° Northeast 205 380 5.800 -912 Descending Los Angeles Center
Tue 12:56:05 35.9703 -115.2297 24° Northeast 210 389 5.000 -615 Descending Los Angeles Center
Tue 12:57:07 36.0153 -115.2036 25° Northeast 208 385 4.600 -960 Descending Los Angeles Center
Tue 12:58:10 36.0411 -115.1881 26° Northeast 121 224 3.000 -919 Descending Los Angeles Center
Tue 12:59:11 36.0803 -115.1661 24° Northeast 132 245 2.700 -432 Descending Los Angeles Center
Tue 13:00:15 36.1094 -115.1497 24° Northeast 125 232 2.100 -563 Descending Los Angeles Center

Login

Don't have an account? Register now (free) for customized features, flight alerts, and more!